createdAt,value
2018-11-01T00:01:56.936Z,91.89
2018-11-01T00:04:25.904Z,91.46
2018-11-01T00:06:54.895Z,91.18
2018-11-01T00:09:23.865Z,92.40
2018-11-01T00:11:52.992Z,92.65
2018-11-01T00:14:22.041Z,93.15
2018-11-01T00:16:51.329Z,92.84
2018-11-01T00:19:20.317Z,93.01
2018-11-01T00:21:49.334Z,93.73
2018-11-01T00:24:18.412Z,93.38
2018-11-01T00:26:47.371Z,93.70
2018-11-01T00:29:16.378Z,94.94
2018-11-01T00:31:45.340Z,93.99
2018-11-01T00:34:14.354Z,95.28
2018-11-01T00:36:43.329Z,95.19
2018-11-01T00:39:13.598Z,94.74
2018-11-01T00:41:42.596Z,94.76
2018-11-01T00:44:11.609Z,94.60
2018-11-01T00:46:41.705Z,94.42
2018-11-01T00:49:10.689Z,94.47
2018-11-01T00:51:39.699Z,95.65
2018-11-01T00:54:08.677Z,95.91
2018-11-01T00:56:37.679Z,96.17
2018-11-01T00:59:08.746Z,95.90
2018-11-01T01:01:37.719Z,95.65
2018-11-01T01:04:06.726Z,95.51
2018-11-01T01:06:35.717Z,95.66
2018-11-01T01:09:08.621Z,95.66
2018-11-01T01:11:37.642Z,96.16
2018-11-01T01:14:07.189Z,96.54
2018-11-01T01:16:36.262Z,96.79
2018-11-01T01:19:06.656Z,97.79
2018-11-01T01:21:35.566Z,97.96
2018-11-01T01:24:04.806Z,97.27
2018-11-01T01:26:33.775Z,96.86
2018-11-01T01:29:02.735Z,97.46
2018-11-01T01:31:31.695Z,97.55
2018-11-01T01:34:00.665Z,98.18
2018-11-01T01:36:29.653Z,99.04
2018-11-01T01:38:58.616Z,98.95
2018-11-01T01:41:27.613Z,99.30
2018-11-01T01:43:56.640Z,98.19
2018-11-01T01:46:25.809Z,97.45
2018-11-01T01:48:54.808Z,98.00
2018-11-01T01:51:23.826Z,97.61
2018-11-01T01:53:52.862Z,98.41
2018-11-01T01:56:21.816Z,98.43
2018-11-01T01:58:50.759Z,98.06
2018-11-01T02:01:19.734Z,98.06
2018-11-01T02:03:48.718Z,98.35
2018-11-01T02:06:18.446Z,97.91
2018-11-01T02:08:47.406Z,97.91
2018-11-01T02:11:16.386Z,98.40
2018-11-01T02:13:45.417Z,99.65
2018-11-01T02:16:14.394Z,98.95
2018-11-01T02:18:43.502Z,99.00
2018-11-01T02:21:12.464Z,98.84
2018-11-01T02:23:41.564Z,98.89
2018-11-01T02:26:10.657Z,99.04
2018-11-01T02:28:39.608Z,98.94
2018-11-01T02:31:08.681Z,99.39
2018-11-01T02:33:37.665Z,99.77
2018-11-01T02:36:06.681Z,100.00
2018-11-01T02:38:35.719Z,99.57
2018-11-01T02:41:04.690Z,100.00
2018-11-01T02:43:33.658Z,99.76
2018-11-01T02:46:02.756Z,99.93
2018-11-01T02:48:31.750Z,99.42
2018-11-01T02:51:01.506Z,99.85
2018-11-01T02:53:30.463Z,100.00
2018-11-01T02:55:59.619Z,100.00
2018-11-01T02:58:28.674Z,100.00
2018-11-01T03:00:57.734Z,99.33
2018-11-01T03:03:26.710Z,100.00
2018-11-01T03:05:55.783Z,100.00
2018-11-01T03:08:24.748Z,100.00
2018-11-01T03:10:53.705Z,100.00
2018-11-01T03:13:22.678Z,99.41
2018-11-01T03:15:51.640Z,99.84
2018-11-01T03:18:20.720Z,99.83
2018-11-01T03:20:49.721Z,99.71
2018-11-01T03:23:18.713Z,100.00
2018-11-01T03:25:47.789Z,99.62
2018-11-01T03:28:16.754Z,99.61
2018-11-01T03:30:45.748Z,98.43
2018-11-01T03:33:14.701Z,98.63
2018-11-01T03:35:43.719Z,99.07
2018-11-01T03:38:12.783Z,99.20
2018-11-01T03:40:41.702Z,99.55
2018-11-01T03:43:10.736Z,99.98
2018-11-01T03:45:39.744Z,99.51
2018-11-01T03:48:08.687Z,100.00
2018-11-01T03:50:37.650Z,100.00
2018-11-01T03:53:06.623Z,100.00
2018-11-01T03:55:35.590Z,100.00
2018-11-01T03:58:04.549Z,100.00
2018-11-01T04:00:33.514Z,100.00
2018-11-01T04:03:02.503Z,100.00
2018-11-01T04:05:31.457Z,100.00
2018-11-01T04:08:00.410Z,100.00
2018-11-01T04:10:29.471Z,100.00
2018-11-01T04:12:58.618Z,100.00
2018-11-01T04:15:27.584Z,100.00
2018-11-01T04:17:56.560Z,100.00
2018-11-01T04:20:25.531Z,100.00
2018-11-01T04:22:54.513Z,100.00
2018-11-01T04:25:23.472Z,100.00
2018-11-01T04:27:52.474Z,100.00
2018-11-01T04:30:21.461Z,100.00
2018-11-01T04:32:50.452Z,100.00
2018-11-01T04:35:19.400Z,100.00
2018-11-01T04:37:48.328Z,100.00
2018-11-01T04:40:17.282Z,100.00
2018-11-01T04:42:46.217Z,100.00
2018-11-01T04:45:15.268Z,100.00
2018-11-01T04:47:44.351Z,100.00
2018-11-01T04:50:13.314Z,100.00
2018-11-01T04:52:43.113Z,100.00
2018-11-01T04:55:12.043Z,100.00
2018-11-01T04:57:41.406Z,100.00
2018-11-01T05:00:13.050Z,100.00
2018-11-01T05:02:42.666Z,100.00
2018-11-01T05:05:11.711Z,100.00
2018-11-01T05:07:40.523Z,100.00
2018-11-01T05:10:10.990Z,100.00
2018-11-01T05:12:40.185Z,100.00
2018-11-01T05:15:09.672Z,100.00
2018-11-01T05:17:38.899Z,100.00
2018-11-01T05:20:09.699Z,100.00
2018-11-01T05:22:38.711Z,100.00
2018-11-01T05:25:07.888Z,100.00
2018-11-01T05:27:36.809Z,100.00
2018-11-01T05:30:07.940Z,100.00
2018-11-01T05:32:36.905Z,100.00
2018-11-01T05:35:06.230Z,100.00
2018-11-01T05:37:35.172Z,100.00
2018-11-01T05:40:04.324Z,100.00
2018-11-01T05:42:33.646Z,100.00
2018-11-01T05:45:02.765Z,100.00
2018-11-01T05:47:32.595Z,100.00
2018-11-01T05:50:01.855Z,100.00
2018-11-01T05:52:31.347Z,100.00
2018-11-01T05:55:00.293Z,100.00
2018-11-01T05:57:29.246Z,100.00
2018-11-01T05:59:58.260Z,100.00
2018-11-01T06:02:32.686Z,100.00
2018-11-01T06:05:01.823Z,100.00
2018-11-01T06:07:35.886Z,100.00
2018-11-01T06:10:05.430Z,97.47
2018-11-01T06:12:34.522Z,96.99
2018-11-01T06:15:03.444Z,97.50
2018-11-01T06:17:32.536Z,96.87
2018-11-01T06:20:01.469Z,95.73
2018-11-01T06:22:30.433Z,96.68
2018-11-01T06:24:59.365Z,97.56
2018-11-01T06:27:28.294Z,96.11
2018-11-01T06:29:57.662Z,95.85
2018-11-01T06:32:26.628Z,95.73
2018-11-01T06:34:58.925Z,96.10
2018-11-01T06:37:27.835Z,94.28
2018-11-01T06:39:56.811Z,94.37
2018-11-01T06:42:25.730Z,92.73
2018-11-01T06:44:54.703Z,93.79
2018-11-01T06:47:23.629Z,94.21
2018-11-01T06:49:52.784Z,95.46
2018-11-01T06:52:21.778Z,94.38
2018-11-01T06:54:51.257Z,94.59
2018-11-01T06:57:20.167Z,94.88
2018-11-01T06:59:49.127Z,95.06
2018-11-01T07:02:18.065Z,96.27
2018-11-01T07:04:47.015Z,96.09
2018-11-01T07:07:15.966Z,96.69
2018-11-01T07:09:45.963Z,95.86
2018-11-01T07:12:15.879Z,95.83
2018-11-01T07:14:44.834Z,94.22
2018-11-01T07:17:13.816Z,93.59
2018-11-01T07:19:42.766Z,92.46
2018-11-01T07:22:11.753Z,88.80
2018-11-01T07:24:40.683Z,86.48
2018-11-01T07:27:10.032Z,84.29
2018-11-01T07:29:39.048Z,81.10
2018-11-01T07:32:08.746Z,78.60
2018-11-01T07:34:37.681Z,72.07
2018-11-01T07:37:07.123Z,71.58
2018-11-01T07:39:36.046Z,71.00
2018-11-01T07:42:05.374Z,70.95
2018-11-01T07:44:34.309Z,71.44
2018-11-01T07:47:03.259Z,69.92
2018-11-01T07:49:32.219Z,69.90
2018-11-01T07:52:01.214Z,69.43
2018-11-01T07:54:30.149Z,68.26
2018-11-01T07:56:59.092Z,68.03
2018-11-01T07:59:28.163Z,62.84
2018-11-01T08:01:57.082Z,59.90
2018-11-01T08:04:26.020Z,58.61
2018-11-01T08:06:54.967Z,54.86
2018-11-01T08:09:23.898Z,55.17
2018-11-01T08:11:53.057Z,53.46
2018-11-01T08:14:22.674Z,51.03
2018-11-01T08:16:53.435Z,50.22
2018-11-01T08:19:22.395Z,50.32
2018-11-01T08:21:51.248Z,51.18
2018-11-01T08:24:20.260Z,57.72
2018-11-01T08:26:49.222Z,57.65
2018-11-01T08:29:18.182Z,58.13
2018-11-01T08:31:47.128Z,59.22
2018-11-01T08:34:16.126Z,60.92
2018-11-01T08:36:45.113Z,62.06
2018-11-01T08:39:14.224Z,61.99
2018-11-01T08:41:43.153Z,62.91
2018-11-01T08:44:12.081Z,63.49
2018-11-01T08:46:41.093Z,63.31
2018-11-01T08:49:11.121Z,63.33
2018-11-01T08:51:40.964Z,62.64
2018-11-01T08:54:09.985Z,64.02
2018-11-01T08:56:38.958Z,63.89
2018-11-01T08:59:07.929Z,63.63
2018-11-01T09:01:36.919Z,65.09
2018-11-01T09:04:06.129Z,64.75
2018-11-01T09:06:35.046Z,64.89
2018-11-01T09:09:05.241Z,63.85
2018-11-01T09:11:34.161Z,63.35
2018-11-01T09:14:03.094Z,62.05
2018-11-01T09:16:32.097Z,60.46
2018-11-01T09:19:01.054Z,58.96
2018-11-01T09:21:30.076Z,58.87
2018-11-01T09:24:00.140Z,58.91
2018-11-01T09:26:29.164Z,57.98
2018-11-01T09:28:58.112Z,58.77
2018-11-01T09:31:27.105Z,57.38
2018-11-01T09:33:56.053Z,56.05
2018-11-01T09:36:25.317Z,56.88
2018-11-01T09:38:54.234Z,56.87
2018-11-01T09:41:23.229Z,58.15
2018-11-01T09:43:52.169Z,58.65
2018-11-01T09:46:21.718Z,57.12
2018-11-01T09:48:50.479Z,58.13
2018-11-01T09:51:19.625Z,58.36
2018-11-01T09:53:50.606Z,56.84
2018-11-01T09:56:20.168Z,57.32
2018-11-01T09:58:49.077Z,57.05
2018-11-01T10:01:18.202Z,57.43
2018-11-01T10:03:46.989Z,57.87
2018-11-01T10:06:16.012Z,58.80
2018-11-01T10:08:45.034Z,59.26
2018-11-01T10:11:14.108Z,60.33
2018-11-01T10:13:43.075Z,60.45
2018-11-01T10:16:12.383Z,60.68
2018-11-01T10:18:41.151Z,61.65
2018-11-01T10:21:10.140Z,61.25
2018-11-01T10:23:39.018Z,61.29
2018-11-01T10:26:07.957Z,61.04
2018-11-01T10:28:37.878Z,61.03
2018-11-01T10:31:07.591Z,60.66
2018-11-01T10:33:36.501Z,61.82
2018-11-01T10:36:05.966Z,61.94
2018-11-01T10:38:34.964Z,61.44
2018-11-01T10:41:03.967Z,61.16
2018-11-01T10:43:33.086Z,61.58
2018-11-01T10:46:02.063Z,61.57
2018-11-01T10:48:31.271Z,62.24
2018-11-01T10:51:00.268Z,62.02
2018-11-01T10:53:29.327Z,62.95
2018-11-01T10:55:58.246Z,62.94
2018-11-01T10:58:27.402Z,62.03
2018-11-01T11:01:01.623Z,61.36
2018-11-01T11:03:31.500Z,61.76
2018-11-01T11:06:01.705Z,61.70
2018-11-01T11:08:30.795Z,61.90
2018-11-01T11:10:59.950Z,61.86
2018-11-01T11:13:28.901Z,62.69
2018-11-01T11:15:57.837Z,61.99
2018-11-01T11:18:26.826Z,62.69
2018-11-01T11:20:56.076Z,62.45
2018-11-01T11:23:24.710Z,62.18
2018-11-01T11:25:53.651Z,61.80
2018-11-01T11:28:22.665Z,61.45
2018-11-01T11:30:51.592Z,60.73
2018-11-01T11:33:20.514Z,61.58
2018-11-01T11:35:49.532Z,62.16
2018-11-01T11:38:19.446Z,62.43
2018-11-01T11:40:48.716Z,61.82
2018-11-01T11:43:17.697Z,62.79
2018-11-01T11:45:46.632Z,63.11
2018-11-01T11:48:15.571Z,62.85
2018-11-01T11:50:44.616Z,62.92
2018-11-01T11:53:13.559Z,62.93
2018-11-01T11:55:42.640Z,62.96
2018-11-01T11:58:11.653Z,63.02
2018-11-01T12:00:40.622Z,63.95
2018-11-01T12:03:09.560Z,63.72
2018-11-01T12:05:39.281Z,63.61
2018-11-01T12:08:08.093Z,64.02
2018-11-01T12:10:37.017Z,63.72
2018-11-01T12:13:06.142Z,64.00
2018-11-01T12:15:35.089Z,64.37
2018-11-01T12:18:04.166Z,63.91
2018-11-01T12:20:33.051Z,63.98
2018-11-01T12:23:02.008Z,64.11
2018-11-01T12:25:30.941Z,64.03
2018-11-01T12:27:59.923Z,63.96
2018-11-01T12:30:28.876Z,64.42
2018-11-01T12:32:57.915Z,64.03
2018-11-01T12:35:26.838Z,63.77
2018-11-01T12:37:56.003Z,64.24
2018-11-01T12:40:25.017Z,64.33
2018-11-01T12:42:55.439Z,63.76
2018-11-01T12:45:25.458Z,64.36
2018-11-01T12:47:54.436Z,64.01
2018-11-01T12:50:23.519Z,64.47
2018-11-01T12:52:52.495Z,64.36
2018-11-01T12:55:21.446Z,64.57
2018-11-01T12:57:50.415Z,64.56
2018-11-01T13:00:19.341Z,64.42
2018-11-01T13:02:48.274Z,64.34
2018-11-01T13:05:17.312Z,64.37
2018-11-01T13:07:46.309Z,65.29
2018-11-01T13:10:15.295Z,64.99
2018-11-01T13:12:44.237Z,65.08
2018-11-01T13:15:13.500Z,64.90
2018-11-01T13:17:42.533Z,64.95
2018-11-01T13:20:12.297Z,65.27
2018-11-01T13:22:41.735Z,65.40
2018-11-01T13:25:11.626Z,64.72
2018-11-01T13:27:40.901Z,65.31
2018-11-01T13:30:14.288Z,65.36
2018-11-01T13:32:44.515Z,65.00
2018-11-01T13:35:13.813Z,65.46
2018-11-01T13:37:42.801Z,65.18
2018-11-01T13:40:12.201Z,65.30
2018-11-01T13:42:41.308Z,65.98
2018-11-01T13:45:10.504Z,66.21
2018-11-01T13:47:39.498Z,66.03
2018-11-01T13:50:09.725Z,66.99
2018-11-01T13:52:39.097Z,66.29
2018-11-01T13:55:09.889Z,66.67
2018-11-01T13:57:39.632Z,67.47
2018-11-01T14:00:09.505Z,66.84
2018-11-01T14:02:39.830Z,66.82
2018-11-01T14:05:14.713Z,66.67
2018-11-01T14:07:44.153Z,67.74
2018-11-01T14:10:14.684Z,67.00
2018-11-01T14:12:43.771Z,67.76
2018-11-01T14:15:13.203Z,67.93
2018-11-01T14:17:42.062Z,68.28
2018-11-01T14:20:12.449Z,67.55
2018-11-01T14:22:41.405Z,67.91
2018-11-01T14:25:11.435Z,68.86
2018-11-01T14:27:40.352Z,67.99
2018-11-01T14:30:12.589Z,68.51
2018-11-01T14:32:43.520Z,68.46
2018-11-01T14:35:12.710Z,67.98
2018-11-01T14:37:41.634Z,68.26
2018-11-01T14:40:11.978Z,68.28
2018-11-01T14:42:41.114Z,67.87
2018-11-01T14:45:10.280Z,67.58
2018-11-01T14:47:39.620Z,68.07
2018-11-01T14:50:08.858Z,68.12
2018-11-01T14:52:38.657Z,68.45
2018-11-01T14:55:08.609Z,68.87
2018-11-01T14:57:37.783Z,69.75
2018-11-01T15:00:06.589Z,69.65
2018-11-01T15:02:35.719Z,69.64
2018-11-01T15:05:05.028Z,69.51
2018-11-01T15:07:34.185Z,69.93
2018-11-01T15:10:03.335Z,70.25
2018-11-01T15:12:32.284Z,70.27
2018-11-01T15:15:05.101Z,70.79
2018-11-01T15:20:01.884Z,70.32
2018-11-01T15:22:30.920Z,70.00
2018-11-01T15:25:00.377Z,71.21
2018-11-01T15:27:29.456Z,71.12
2018-11-01T15:29:58.532Z,70.97
2018-11-01T15:32:29.133Z,70.17
2018-11-01T15:34:58.772Z,70.80
2018-11-01T15:37:27.746Z,70.14
2018-11-01T15:39:56.819Z,70.00
2018-11-01T15:42:25.664Z,69.92
2018-11-01T15:44:54.622Z,69.67
2018-11-01T15:47:23.559Z,69.35
2018-11-01T15:49:52.657Z,69.76
2018-11-01T15:52:21.570Z,70.08
2018-11-01T15:54:50.528Z,70.18
2018-11-01T15:57:19.482Z,69.69
2018-11-01T15:59:48.490Z,70.38
2018-11-01T16:02:17.665Z,69.78
2018-11-01T16:04:46.684Z,70.00
2018-11-01T16:07:17.565Z,70.03
2018-11-01T16:09:47.144Z,70.12
2018-11-01T16:12:16.782Z,70.20
2018-11-01T16:14:45.736Z,69.38
2018-11-01T16:17:14.712Z,70.50
2018-11-01T16:19:44.255Z,69.92
2018-11-01T16:22:13.106Z,69.83
2018-11-01T16:24:42.059Z,69.90
2018-11-01T16:27:11.116Z,69.78
2018-11-01T16:29:40.153Z,70.22
2018-11-01T16:32:09.108Z,69.93
2018-11-01T16:34:38.152Z,69.73
2018-11-01T16:37:07.183Z,70.33
2018-11-01T16:39:36.126Z,69.86
2018-11-01T16:42:05.145Z,70.52
2018-11-01T16:44:34.052Z,71.07
2018-11-01T16:47:02.994Z,70.07
2018-11-01T16:49:32.004Z,70.93
2018-11-01T16:52:01.018Z,70.61
2018-11-01T16:54:29.987Z,71.24
2018-11-01T16:56:58.984Z,71.08
2018-11-01T16:59:28.502Z,70.14
2018-11-01T17:01:57.486Z,69.96
2018-11-01T17:04:26.495Z,70.25
2018-11-01T17:06:55.555Z,70.51
2018-11-01T17:09:24.532Z,70.80
2018-11-01T17:11:53.563Z,70.86
2018-11-01T17:14:24.285Z,71.01
2018-11-01T17:16:53.303Z,70.55
2018-11-01T17:19:22.267Z,71.14
2018-11-01T17:21:51.215Z,71.34
2018-11-01T17:24:20.161Z,71.44
2018-11-01T17:26:49.119Z,71.65
2018-11-01T17:29:18.112Z,71.45
2018-11-01T17:31:47.090Z,71.93
2018-11-01T17:34:16.127Z,71.93
2018-11-01T17:36:45.064Z,71.63
2018-11-01T17:39:14.000Z,71.07
2018-11-01T17:41:42.970Z,70.95
2018-11-01T17:44:11.918Z,71.67
2018-11-01T17:46:40.921Z,71.56
2018-11-01T17:49:10.013Z,70.93
2018-11-01T17:51:38.953Z,71.00
2018-11-01T17:54:12.044Z,71.08
2018-11-01T17:56:41.643Z,70.80
2018-11-01T17:59:10.833Z,71.23
2018-11-01T18:01:39.923Z,71.22
2018-11-01T18:04:09.501Z,71.81
2018-11-01T18:06:38.657Z,71.89
2018-11-01T18:09:09.933Z,72.01
2018-11-01T18:11:38.940Z,72.03
2018-11-01T18:14:08.001Z,72.61
2018-11-01T18:16:37.151Z,71.58
2018-11-01T18:19:06.168Z,72.16
2018-11-01T18:21:35.111Z,72.11
2018-11-01T18:24:04.839Z,71.53
2018-11-01T18:26:33.950Z,70.66
2018-11-01T18:29:03.040Z,71.05
2018-11-01T18:31:31.941Z,71.53
2018-11-01T18:34:00.951Z,71.79
2018-11-01T18:36:29.968Z,71.49
2018-11-01T18:38:59.083Z,71.73
2018-11-01T18:41:28.058Z,72.63
2018-11-01T18:43:57.049Z,72.89
2018-11-01T18:46:26.063Z,73.14
2018-11-01T18:48:55.215Z,73.05
2018-11-01T18:51:24.893Z,73.20
2018-11-01T18:53:53.913Z,73.13
2018-11-01T18:56:22.862Z,73.68
2018-11-01T18:58:51.829Z,76.08
2018-11-01T19:01:20.777Z,76.69
2018-11-01T19:03:49.759Z,77.00
2018-11-01T19:06:18.767Z,78.09
2018-11-01T19:08:47.812Z,78.43
2018-11-01T19:11:16.793Z,78.18
2018-11-01T19:13:45.845Z,79.38
2018-11-01T19:16:14.802Z,78.80
2018-11-01T19:18:43.831Z,78.46
2018-11-01T19:24:12.369Z,81.35
2018-11-01T19:26:41.371Z,80.31
2018-11-01T19:29:10.617Z,79.00
2018-11-01T19:31:39.783Z,78.88
2018-11-01T19:34:09.825Z,79.36
2018-11-01T19:36:39.365Z,80.93
2018-11-01T19:39:10.548Z,81.63
2018-11-01T19:41:40.038Z,82.31
2018-11-01T19:44:09.726Z,83.66
2018-11-01T19:46:39.639Z,84.14
2018-11-01T19:49:09.850Z,85.15
2018-11-01T19:51:40.533Z,85.86
2018-11-01T19:54:10.635Z,85.80
2018-11-01T19:56:40.710Z,87.04
2018-11-01T19:59:09.723Z,86.69
2018-11-01T20:01:39.433Z,87.92
2018-11-01T20:04:09.212Z,88.10
2018-11-01T20:06:38.109Z,89.34
2018-11-01T20:09:08.037Z,89.29
2018-11-01T20:11:38.049Z,88.62
2018-11-01T20:14:07.135Z,89.06
2018-11-01T20:16:36.149Z,89.89
2018-11-01T20:19:05.475Z,90.89
2018-11-01T20:21:34.358Z,91.34
2018-11-01T20:24:03.378Z,91.08
2018-11-01T20:26:32.429Z,91.85
2018-11-01T20:29:01.529Z,91.38
2018-11-01T20:31:30.615Z,92.16
2018-11-01T20:33:59.723Z,92.59
2018-11-01T20:36:28.821Z,92.96
2018-11-01T20:38:58.058Z,92.74
2018-11-01T20:41:27.015Z,94.14
2018-11-01T20:43:55.951Z,93.90
2018-11-01T20:46:28.219Z,93.31
2018-11-01T20:48:57.165Z,94.02
2018-11-01T20:51:26.166Z,93.76
2018-11-01T20:53:55.096Z,94.41
2018-11-01T20:56:24.023Z,94.29
2018-11-01T20:58:52.962Z,95.47
2018-11-01T21:01:21.907Z,95.42
2018-11-01T21:03:50.953Z,95.48
2018-11-01T21:06:19.913Z,95.57
2018-11-01T21:08:48.907Z,96.14
2018-11-01T21:11:17.929Z,96.30
2018-11-01T21:13:46.910Z,96.42
2018-11-01T21:16:16.006Z,96.64
2018-11-01T21:18:45.118Z,96.74
2018-11-01T21:21:14.246Z,97.67
2018-11-01T21:23:43.153Z,97.57
2018-11-01T21:26:16.948Z,98.10
2018-11-01T21:28:45.870Z,98.31
2018-11-01T21:31:14.791Z,99.79
2018-11-01T21:33:44.309Z,97.83
2018-11-01T21:36:13.394Z,100.00
2018-11-01T21:38:42.413Z,98.50
2018-11-01T21:41:11.380Z,98.40
2018-11-01T21:43:40.839Z,98.53
2018-11-01T21:46:11.294Z,98.47
2018-11-01T21:48:40.246Z,97.82
2018-11-01T21:51:09.197Z,97.80
2018-11-01T21:53:38.227Z,98.02
2018-11-01T21:56:07.173Z,98.17
2018-11-01T21:58:36.212Z,97.98
2018-11-01T22:01:05.524Z,98.52
2018-11-01T22:03:34.896Z,98.46
2018-11-01T22:06:04.021Z,98.79
2018-11-01T22:08:32.932Z,98.59
2018-11-01T22:11:02.011Z,99.70
2018-11-01T22:13:30.971Z,100.00
2018-11-01T22:15:59.965Z,100.00
2018-11-01T22:18:28.904Z,99.98
2018-11-01T22:20:58.104Z,99.71
2018-11-01T22:23:27.054Z,100.00
2018-11-01T22:25:56.080Z,100.00
2018-11-01T22:28:25.150Z,100.00
2018-11-01T22:30:53.981Z,100.00
2018-11-01T22:33:22.958Z,100.00
2018-11-01T22:35:51.903Z,99.77
2018-11-01T22:38:20.862Z,100.00
2018-11-01T22:40:50.045Z,100.00
2018-11-01T22:43:18.987Z,100.00
2018-11-01T22:45:48.153Z,100.00
2018-11-01T22:48:17.094Z,100.00
2018-11-01T22:50:46.068Z,100.00
2018-11-01T22:53:15.041Z,100.00
2018-11-01T22:55:44.084Z,100.00
2018-11-01T22:58:13.058Z,100.00
2018-11-01T23:00:44.947Z,100.00
2018-11-01T23:03:14.369Z,99.60
2018-11-01T23:05:43.414Z,98.90
2018-11-01T23:08:12.493Z,98.56
2018-11-01T23:10:41.575Z,97.76
2018-11-01T23:13:10.573Z,97.14
2018-11-01T23:15:39.542Z,97.01
2018-11-01T23:18:08.588Z,95.53
2018-11-01T23:20:37.602Z,96.05
2018-11-01T23:23:06.671Z,95.63
2018-11-01T23:25:35.691Z,95.52
2018-11-01T23:28:10.018Z,96.48
2018-11-01T23:30:44.749Z,95.47
2018-11-01T23:33:15.275Z,97.33
2018-11-01T23:35:50.129Z,96.04
2018-11-01T23:38:27.467Z,96.52
2018-11-01T23:41:03.664Z,96.68
2018-11-01T23:43:40.369Z,96.58
2018-11-01T23:46:20.761Z,97.39
2018-11-01T23:49:03.363Z,97.41
2018-11-01T23:55:25.179Z,98.39
2018-11-01T23:57:55.951Z,96.64
